Terminal Aerodrome Forecast
Issued by NWS Albuquerque, NM

Home | Current Version | Previous Version | Text Only | Print | Product List | Glossary On
Versions: 1 2 3 4 5 6 7 8 9 10 11 12 13
000
FTUS45 KABQ 270500
TAFABQ
TAF
KABQ 270536Z 2706/2806 VRB04KT P6SM BKN250
     FM270900 02006KT P6SM BKN200
     FM271800 VRB04KT P6SM FEW100 BKN150
     FM280200 36005KT P6SM FEW080 SCT150=

USA.gov is the U.S. government's official web portal to all federal, state and local government web resources and services.